createdAt,value
2023-03-20T00:00:02.042Z,52.60
2023-03-20T00:02:31.693Z,56.25
2023-03-20T00:05:01.288Z,61.03
2023-03-20T00:07:31.063Z,62.22
2023-03-20T00:10:00.614Z,62.03
2023-03-20T00:12:30.203Z,68.78
2023-03-20T00:14:59.810Z,59.30
2023-03-20T00:17:29.554Z,59.00
2023-03-20T00:19:59.197Z,69.32
2023-03-20T00:22:30.860Z,61.25
2023-03-20T00:25:00.398Z,62.85
2023-03-20T00:27:30.063Z,60.35
2023-03-20T00:30:00.126Z,56.60
2023-03-20T00:32:30.797Z,62.88
2023-03-20T00:35:00.435Z,63.55
2023-03-20T00:37:30.588Z,62.78
2023-03-20T00:40:00.193Z,65.68
2023-03-20T00:42:29.780Z,67.60
2023-03-20T00:45:01.103Z,64.75
2023-03-20T00:47:31.734Z,63.15
2023-03-20T00:50:01.412Z,64.95
2023-03-20T00:52:31.569Z,65.82
2023-03-20T00:55:01.208Z,67.95
2023-03-20T00:57:32.966Z,66.78
2023-03-20T01:00:09.000Z,65.70
2023-03-20T01:02:38.929Z,64.50
2023-03-20T01:05:09.189Z,67.35
2023-03-20T01:07:38.759Z,64.05
2023-03-20T01:10:08.980Z,66.10
2023-03-20T01:12:38.561Z,57.92
2023-03-20T01:15:17.575Z,62.42
2023-03-20T01:17:47.263Z,62.58
2023-03-20T01:20:19.079Z,59.55
2023-03-20T01:22:48.753Z,61.03
2023-03-20T01:25:18.776Z,63.28
2023-03-20T01:27:53.293Z,56.30
2023-03-20T01:30:28.370Z,54.55
2023-03-20T01:32:58.514Z,59.08
2023-03-20T01:35:29.232Z,55.47
2023-03-20T01:37:59.097Z,63.63
2023-03-20T01:40:34.253Z,56.88
2023-03-20T01:43:04.974Z,58.45
2023-03-20T01:45:38.849Z,58.40
2023-03-20T01:48:29.532Z,53.72
2023-03-20T01:50:59.167Z,57.90
2023-03-20T01:53:29.476Z,55.55
2023-03-20T01:55:59.968Z,55.63
2023-03-20T01:58:33.959Z,56.40
2023-03-20T02:01:03.628Z,56.70
2023-03-20T02:03:33.829Z,54.35
2023-03-20T02:06:03.473Z,54.58
2023-03-20T02:08:33.857Z,53.38
2023-03-20T02:11:03.436Z,53.58
2023-03-20T02:13:34.259Z,57.85
2023-03-20T02:16:13.336Z,52.63
2023-03-20T02:18:44.170Z,50.53
2023-03-20T02:21:35.163Z,51.03
2023-03-20T02:24:22.708Z,48.78
2023-03-20T02:27:33.566Z,45.47
2023-03-20T02:30:25.920Z,48.67
2023-03-20T02:33:04.336Z,45.70
2023-03-20T02:35:39.384Z,50.85
2023-03-20T02:38:33.419Z,43.58
2023-03-20T02:41:17.999Z,43.33
2023-03-20T02:46:59.005Z,37.20
2023-03-20T02:49:34.571Z,43.70
2023-03-20T02:52:06.907Z,41.83
2023-03-20T02:54:36.464Z,40.78
2023-03-20T02:57:43.823Z,39.50
2023-03-20T03:00:25.647Z,40.92
2023-03-20T03:03:27.125Z,41.05
2023-03-20T03:06:04.619Z,44.17
2023-03-20T03:08:36.130Z,46.63
2023-03-20T03:11:10.111Z,42.65
2023-03-20T03:13:51.179Z,37.60
2023-03-20T03:16:45.328Z,40.03
2023-03-20T03:19:21.668Z,36.40
2023-03-20T03:21:51.387Z,37.25
2023-03-20T03:24:42.222Z,34.78
2023-03-20T03:27:31.364Z,36.75
2023-03-20T03:30:09.407Z,39.20
2023-03-20T03:32:49.816Z,34.33
2023-03-20T03:35:21.253Z,35.20
2023-03-20T03:38:03.104Z,33.00
2023-03-20T03:40:59.337Z,32.83
2023-03-20T03:43:30.267Z,35.50
2023-03-20T03:46:04.855Z,31.90
2023-03-20T03:48:42.757Z,31.17
2023-03-20T03:51:15.257Z,37.78
2023-03-20T03:53:51.879Z,32.63
2023-03-20T03:56:23.598Z,31.33
2023-03-20T03:59:01.600Z,31.33
2023-03-20T04:01:31.747Z,32.40
2023-03-20T04:04:05.040Z,32.13
2023-03-20T04:06:37.812Z,35.27
2023-03-20T04:09:07.416Z,35.05
2023-03-20T04:11:37.472Z,28.95
2023-03-20T04:14:07.185Z,32.30
2023-03-20T04:16:37.039Z,31.90
2023-03-20T04:19:06.970Z,29.95
2023-03-20T04:21:36.709Z,31.70
2023-03-20T04:24:06.431Z,30.90
2023-03-20T04:26:36.072Z,28.75
2023-03-20T04:29:06.143Z,30.25
2023-03-20T04:31:35.899Z,29.42
2023-03-20T04:34:05.590Z,26.65
2023-03-20T04:36:35.271Z,31.23
2023-03-20T04:39:04.940Z,27.23
2023-03-20T04:41:34.581Z,28.30
2023-03-20T04:44:04.255Z,29.20
2023-03-20T04:46:33.906Z,30.48
2023-03-20T04:49:03.496Z,26.63
2023-03-20T04:51:33.097Z,28.38
2023-03-20T04:54:02.731Z,25.33
2023-03-20T04:56:32.380Z,26.95
2023-03-20T04:59:01.974Z,30.45
2023-03-20T05:01:31.862Z,29.27
2023-03-20T05:04:03.016Z,28.40
2023-03-20T05:06:35.934Z,29.35
2023-03-20T05:09:05.615Z,24.70
2023-03-20T05:11:35.299Z,24.48
2023-03-20T05:14:06.183Z,22.90
2023-03-20T05:16:35.844Z,24.40
2023-03-20T05:19:05.566Z,26.50
2023-03-20T05:21:35.137Z,26.20
2023-03-20T05:24:04.695Z,26.00
2023-03-20T05:26:34.283Z,24.38
2023-03-20T05:29:04.014Z,29.20
2023-03-20T05:31:33.602Z,22.70
2023-03-20T05:34:03.394Z,24.77
2023-03-20T05:36:33.132Z,24.45
2023-03-20T05:39:03.077Z,24.25
2023-03-20T05:41:32.761Z,22.40
2023-03-20T05:44:02.408Z,24.27
2023-03-20T05:46:32.071Z,21.88
2023-03-20T05:49:02.483Z,23.52
2023-03-20T05:51:32.417Z,22.27
2023-03-20T05:54:02.256Z,22.58
2023-03-20T05:56:32.098Z,25.48
2023-03-20T05:59:02.651Z,20.95
2023-03-20T06:01:32.328Z,23.98
2023-03-20T06:04:02.065Z,26.38
2023-03-20T06:06:31.838Z,22.80
2023-03-20T06:09:01.451Z,21.65
2023-03-20T06:11:31.347Z,25.45
2023-03-20T06:14:00.966Z,23.67
2023-03-20T06:16:30.632Z,25.50
2023-03-20T06:19:00.958Z,23.73
2023-03-20T06:21:30.650Z,22.42
2023-03-20T06:24:01.731Z,23.40
2023-03-20T06:26:31.414Z,23.92
2023-03-20T06:29:01.157Z,21.83
2023-03-20T06:31:30.755Z,22.77
2023-03-20T06:34:00.305Z,20.90
2023-03-20T06:36:29.890Z,25.33
2023-03-20T06:38:59.568Z,20.45
2023-03-20T06:41:34.592Z,24.45
2023-03-20T06:44:05.407Z,19.23
2023-03-20T06:46:35.014Z,20.17
2023-03-20T06:49:05.418Z,23.33
2023-03-20T06:51:35.009Z,21.52
2023-03-20T06:54:04.751Z,21.90
2023-03-20T06:56:34.406Z,20.10
2023-03-20T06:59:04.013Z,20.33
2023-03-20T07:01:33.628Z,19.33
2023-03-20T07:04:03.281Z,17.65
2023-03-20T07:06:32.916Z,19.13
2023-03-20T07:09:03.115Z,20.13
2023-03-20T07:11:32.758Z,20.50
2023-03-20T07:14:03.079Z,19.83
2023-03-20T07:16:32.840Z,20.17
2023-03-20T07:19:02.547Z,19.13
2023-03-20T07:21:32.284Z,19.98
2023-03-20T07:24:02.650Z,21.90
2023-03-20T07:26:32.379Z,27.67
2023-03-20T07:29:02.091Z,20.20
2023-03-20T07:31:32.693Z,24.13
2023-03-20T07:34:02.405Z,22.23
2023-03-20T07:36:32.123Z,22.80
2023-03-20T07:39:01.828Z,22.23
2023-03-20T07:41:31.441Z,23.98
2023-03-20T07:44:01.116Z,20.75
2023-03-20T07:46:30.787Z,21.70
2023-03-20T07:49:00.451Z,17.80
2023-03-20T07:51:30.074Z,18.25
2023-03-20T07:53:59.903Z,21.58
2023-03-20T07:56:29.473Z,18.13
2023-03-20T07:58:59.147Z,21.88
2023-03-20T08:01:28.676Z,26.65
2023-03-20T08:03:58.590Z,23.98
2023-03-20T08:06:28.320Z,19.98
2023-03-20T08:08:58.222Z,19.67
2023-03-20T08:11:27.998Z,19.05
2023-03-20T08:13:57.681Z,22.42
2023-03-20T08:16:27.652Z,20.10
2023-03-20T08:19:02.592Z,24.75
2023-03-20T08:21:33.093Z,24.42
2023-03-20T08:24:03.010Z,17.83
2023-03-20T08:26:32.674Z,20.48
2023-03-20T08:29:02.475Z,19.13
2023-03-20T08:31:33.163Z,19.75
2023-03-20T08:34:03.108Z,23.52
2023-03-20T08:36:32.739Z,19.92
2023-03-20T08:39:02.407Z,20.55
2023-03-20T08:41:32.152Z,21.30
2023-03-20T08:44:01.784Z,21.35
2023-03-20T08:46:31.535Z,20.80
2023-03-20T08:49:02.229Z,18.17
2023-03-20T08:51:31.809Z,17.85
2023-03-20T08:54:01.468Z,20.02
2023-03-20T08:56:31.035Z,16.30
2023-03-20T08:59:00.603Z,17.05
2023-03-20T09:01:46.029Z,18.33
2023-03-20T09:04:18.164Z,17.45
2023-03-20T09:06:47.825Z,18.95
2023-03-20T09:09:20.075Z,23.17
2023-03-20T09:11:49.749Z,19.45
2023-03-20T09:14:19.466Z,16.77
2023-03-20T09:16:49.245Z,17.58
2023-03-20T09:19:19.547Z,24.27
2023-03-20T09:21:50.025Z,18.27
2023-03-20T09:24:19.705Z,17.42
2023-03-20T09:26:49.394Z,19.30
2023-03-20T09:29:19.091Z,17.75
2023-03-20T09:31:48.635Z,22.67
2023-03-20T09:34:18.483Z,18.45
2023-03-20T09:36:48.222Z,17.10
2023-03-20T09:39:19.050Z,20.38
2023-03-20T09:41:57.163Z,19.05
2023-03-20T09:44:40.534Z,17.77
2023-03-20T09:47:28.498Z,20.13
2023-03-20T09:50:23.737Z,23.67
2023-03-20T09:53:08.511Z,18.88
2023-03-20T09:55:40.127Z,19.38
2023-03-20T09:58:47.746Z,19.92
2023-03-20T10:01:17.463Z,20.95
2023-03-20T10:04:01.041Z,22.83
2023-03-20T10:06:30.965Z,16.98
2023-03-20T10:09:00.603Z,19.50
2023-03-20T10:11:45.499Z,17.02
2023-03-20T10:14:23.333Z,19.45
2023-03-20T10:17:17.414Z,18.95
2023-03-20T10:20:24.982Z,17.57
2023-03-20T10:23:04.256Z,19.70
2023-03-20T10:25:36.370Z,18.80
2023-03-20T10:28:37.389Z,19.13
2023-03-20T10:31:10.489Z,21.65
2023-03-20T10:34:01.670Z,19.83
2023-03-20T10:36:44.213Z,22.58
2023-03-20T10:39:34.626Z,22.55
2023-03-20T10:42:05.761Z,24.38
2023-03-20T10:44:36.160Z,22.83
2023-03-20T10:47:06.267Z,21.08
2023-03-20T10:49:40.354Z,21.92
2023-03-20T10:52:21.508Z,23.15
2023-03-20T10:54:54.835Z,21.33
2023-03-20T10:57:28.658Z,21.30
2023-03-20T10:59:59.089Z,22.30
2023-03-20T11:02:31.627Z,19.05
2023-03-20T11:05:40.874Z,22.98
2023-03-20T11:08:16.656Z,23.13
2023-03-20T11:10:46.477Z,24.90
2023-03-20T11:13:37.827Z,22.95
2023-03-20T11:16:22.284Z,20.88
2023-03-20T11:18:52.566Z,23.10
2023-03-20T11:21:30.645Z,22.95
2023-03-20T11:24:00.190Z,22.80
2023-03-20T11:26:42.041Z,23.27
2023-03-20T11:29:28.351Z,21.20
2023-03-20T11:31:58.025Z,19.65
2023-03-20T11:34:29.429Z,22.33
2023-03-20T11:37:10.159Z,24.70
2023-03-20T11:39:41.473Z,24.15
2023-03-20T11:42:28.430Z,22.38
2023-03-20T11:45:06.399Z,25.38
2023-03-20T11:47:37.253Z,21.70
2023-03-20T11:50:08.036Z,23.60
2023-03-20T11:52:41.871Z,23.23
2023-03-20T11:55:29.434Z,21.15
2023-03-20T11:58:02.523Z,19.33
2023-03-20T12:00:43.938Z,23.23
2023-03-20T12:03:53.587Z,21.70
2023-03-20T12:06:25.485Z,26.02
2023-03-20T12:09:01.549Z,22.52
2023-03-20T12:11:48.432Z,23.95
2023-03-20T12:14:46.451Z,24.27
2023-03-20T12:17:37.589Z,25.45
2023-03-20T12:20:15.568Z,24.52
2023-03-20T12:23:08.821Z,23.02
2023-03-20T12:25:58.195Z,25.70
2023-03-20T12:28:42.863Z,22.08
2023-03-20T12:31:18.102Z,23.80
2023-03-20T12:34:07.999Z,22.40
2023-03-20T12:36:40.667Z,25.25
2023-03-20T12:39:17.671Z,20.52
2023-03-20T12:42:16.362Z,22.10
2023-03-20T12:45:20.824Z,25.02
2023-03-20T12:48:08.680Z,23.55
2023-03-20T12:50:38.308Z,21.27
2023-03-20T12:53:29.310Z,21.00
2023-03-20T12:56:10.721Z,27.08
2023-03-20T12:58:46.365Z,28.33
2023-03-20T13:01:21.243Z,24.63
2023-03-20T13:04:18.242Z,24.95
2023-03-20T13:06:57.437Z,24.02
2023-03-20T13:09:45.274Z,23.92
2023-03-20T13:12:26.592Z,22.45
2023-03-20T13:15:09.420Z,20.95
2023-03-20T13:17:56.572Z,21.42
2023-03-20T13:20:34.022Z,19.50
2023-03-20T13:23:16.060Z,20.77
2023-03-20T13:25:57.997Z,21.17
2023-03-20T13:28:48.743Z,23.60
2023-03-20T13:31:42.357Z,21.20
2023-03-20T13:34:33.488Z,25.42
2023-03-20T13:37:44.405Z,22.60
2023-03-20T13:40:45.868Z,21.33
2023-03-20T13:43:23.983Z,22.85
2023-03-20T13:46:06.357Z,25.95
2023-03-20T13:48:40.044Z,24.17
2023-03-20T13:51:29.724Z,22.80
2023-03-20T13:54:24.322Z,25.17
2023-03-20T13:57:28.776Z,24.63
2023-03-20T14:00:35.250Z,25.63
2023-03-20T14:03:30.140Z,21.63
2023-03-20T14:05:59.924Z,23.45
2023-03-20T14:08:35.641Z,21.50
2023-03-20T14:11:10.200Z,22.10
2023-03-20T14:13:39.914Z,23.98
2023-03-20T14:16:11.225Z,23.63
2023-03-20T14:18:40.928Z,25.63
2023-03-20T14:21:17.541Z,20.73
2023-03-20T14:23:50.934Z,24.52
2023-03-20T14:26:23.770Z,23.63
2023-03-20T14:29:01.691Z,23.13
2023-03-20T14:31:33.765Z,23.75
2023-03-20T14:34:15.340Z,22.70
2023-03-20T14:36:54.971Z,21.38
2023-03-20T14:39:56.018Z,24.75
2023-03-20T14:43:02.653Z,21.38
2023-03-20T14:45:48.789Z,20.15
2023-03-20T14:48:34.248Z,23.33
2023-03-20T14:51:09.364Z,22.58
2023-03-20T14:53:38.995Z,26.90
2023-03-20T14:56:13.716Z,25.25
2023-03-20T14:58:45.956Z,25.65
2023-03-20T15:01:24.573Z,20.33
2023-03-20T15:04:00.406Z,22.45
2023-03-20T15:06:30.458Z,23.33
2023-03-20T15:09:02.436Z,26.02
2023-03-20T15:11:32.100Z,24.48
2023-03-20T15:14:02.527Z,27.30
2023-03-20T15:16:33.594Z,25.38
2023-03-20T15:19:03.179Z,24.45
2023-03-20T15:21:36.569Z,25.67
2023-03-20T15:24:06.372Z,25.97
2023-03-20T15:26:37.057Z,24.92
2023-03-20T15:29:08.674Z,24.50
2023-03-20T15:31:40.239Z,22.13
2023-03-20T15:34:11.477Z,31.80
2023-03-20T15:36:41.881Z,24.83
2023-03-20T15:39:17.602Z,28.75
2023-03-20T15:41:48.921Z,25.60
2023-03-20T15:44:19.838Z,26.73
2023-03-20T15:46:59.733Z,28.55
2023-03-20T15:49:29.596Z,22.83
2023-03-20T15:52:18.087Z,25.65
2023-03-20T15:54:47.654Z,27.38
2023-03-20T15:57:40.848Z,30.67
2023-03-20T16:00:11.775Z,23.10
2023-03-20T16:02:41.469Z,26.38
2023-03-20T16:05:17.917Z,29.30
2023-03-20T16:07:47.507Z,29.70
2023-03-20T16:10:21.212Z,27.17
2023-03-20T16:12:56.832Z,29.73
2023-03-20T16:15:32.911Z,27.52
2023-03-20T16:18:06.497Z,25.45
2023-03-20T16:20:38.687Z,28.35
2023-03-20T16:23:09.690Z,29.35
2023-03-20T16:25:39.640Z,26.23
2023-03-20T16:28:09.266Z,29.40
2023-03-20T16:30:39.257Z,29.30
2023-03-20T16:33:15.125Z,27.95
2023-03-20T16:35:51.394Z,27.55
2023-03-20T16:38:32.316Z,27.80
2023-03-20T16:41:24.934Z,26.75
2023-03-20T16:43:54.514Z,29.13
2023-03-20T16:46:25.196Z,27.48
2023-03-20T16:49:04.964Z,24.40
2023-03-20T16:51:34.624Z,27.58
2023-03-20T16:54:04.217Z,28.00
2023-03-20T16:56:42.002Z,30.48
2023-03-20T16:59:19.456Z,32.15
2023-03-20T17:01:50.160Z,27.25
2023-03-20T17:04:42.611Z,29.25
2023-03-20T17:07:19.860Z,36.53
2023-03-20T17:10:00.895Z,26.70
2023-03-20T17:12:33.856Z,28.83
2023-03-20T17:15:03.445Z,28.00
2023-03-20T17:17:33.032Z,27.67
2023-03-20T17:20:02.724Z,27.88
2023-03-20T17:22:32.488Z,29.52
2023-03-20T17:25:02.332Z,30.65
2023-03-20T17:27:32.009Z,29.45
2023-03-20T17:30:01.551Z,26.13
2023-03-20T17:32:31.131Z,28.17
2023-03-20T17:35:00.716Z,28.60
2023-03-20T17:37:30.985Z,28.63
2023-03-20T17:40:02.053Z,29.73
2023-03-20T17:42:35.522Z,30.30
2023-03-20T17:45:05.184Z,29.25
2023-03-20T17:47:34.904Z,29.10
2023-03-20T17:50:04.482Z,28.08
2023-03-20T17:52:34.104Z,30.52
2023-03-20T17:55:03.704Z,27.27
2023-03-20T17:57:37.769Z,29.30
2023-03-20T18:00:10.382Z,31.98
2023-03-20T18:02:39.942Z,25.30
2023-03-20T18:05:09.790Z,31.48
2023-03-20T18:07:39.542Z,25.95
2023-03-20T18:10:09.498Z,28.65
2023-03-20T18:12:39.924Z,29.13
2023-03-20T18:15:10.124Z,27.15
2023-03-20T18:17:39.776Z,31.13
2023-03-20T18:20:13.859Z,32.05
2023-03-20T18:22:43.465Z,33.08
2023-03-20T18:25:13.162Z,24.75
2023-03-20T18:27:42.820Z,28.73
2023-03-20T18:30:23.773Z,30.77
2023-03-20T18:32:53.577Z,25.67
2023-03-20T18:35:23.176Z,26.95
2023-03-20T18:37:52.790Z,30.40
2023-03-20T18:40:30.603Z,25.65
2023-03-20T18:43:00.306Z,29.17
2023-03-20T18:45:30.761Z,32.45
2023-03-20T18:48:00.408Z,26.42
2023-03-20T18:50:38.082Z,23.83
2023-03-20T18:53:08.733Z,29.17
2023-03-20T18:55:39.613Z,30.63
2023-03-20T18:58:10.497Z,28.70
2023-03-20T19:00:43.847Z,33.10
2023-03-20T19:03:13.540Z,26.07
2023-03-20T19:05:43.222Z,23.98
2023-03-20T19:08:17.654Z,26.13
2023-03-20T19:10:47.824Z,30.10
2023-03-20T19:13:19.329Z,27.63
2023-03-20T19:15:49.235Z,27.40
2023-03-20T19:18:21.830Z,29.17
2023-03-20T19:20:52.516Z,25.42
2023-03-20T19:23:22.567Z,28.77
2023-03-20T19:25:53.886Z,24.50
2023-03-20T19:28:38.747Z,28.08
2023-03-20T19:31:11.056Z,26.08
2023-03-20T19:33:40.992Z,28.50
2023-03-20T19:36:22.602Z,26.75
2023-03-20T19:38:53.163Z,27.50
2023-03-20T19:41:22.828Z,28.15
2023-03-20T19:43:54.179Z,24.55
2023-03-20T19:46:42.057Z,27.13
2023-03-20T19:49:30.177Z,28.40
2023-03-20T19:52:00.458Z,32.78
2023-03-20T19:54:30.247Z,28.08
2023-03-20T19:56:59.852Z,27.33
2023-03-20T19:59:32.722Z,34.70
2023-03-20T20:02:02.812Z,22.45
2023-03-20T20:04:32.607Z,24.42
2023-03-20T20:07:40.864Z,30.35
2023-03-20T20:09:52.015Z,27.02
2023-03-20T20:12:21.773Z,29.73
2023-03-20T20:14:51.361Z,30.40
2023-03-20T20:17:21.051Z,33.88
2023-03-20T20:19:50.656Z,29.60
2023-03-20T20:22:26.099Z,29.80
2023-03-20T20:24:56.298Z,29.73
2023-03-20T20:27:26.459Z,28.40
2023-03-20T20:29:56.233Z,31.00
2023-03-20T20:32:27.519Z,31.85
2023-03-20T20:40:38.049Z,28.38
2023-03-20T20:43:10.524Z,29.25
2023-03-20T20:45:41.242Z,28.83
2023-03-20T20:48:11.904Z,29.13
2023-03-20T20:50:43.361Z,28.73
2023-03-20T20:53:13.080Z,26.35
2023-03-20T20:55:43.066Z,28.63
2023-03-20T20:58:13.309Z,29.83
2023-03-20T21:00:51.220Z,31.50
2023-03-20T21:03:21.458Z,31.52
2023-03-20T21:05:51.049Z,32.05
2023-03-20T21:08:20.907Z,26.70
2023-03-20T21:10:52.368Z,26.55
2023-03-20T21:13:23.055Z,32.38
2023-03-20T21:16:02.097Z,26.33
2023-03-20T21:18:31.812Z,30.50
2023-03-20T21:21:08.856Z,27.85
2023-03-20T21:23:38.651Z,28.42
2023-03-20T21:26:09.457Z,32.50
2023-03-20T21:28:39.112Z,31.40
2023-03-20T21:31:24.115Z,32.90
2023-03-20T21:33:55.604Z,25.52
2023-03-20T21:36:25.406Z,27.58
2023-03-20T21:39:08.290Z,32.42
2023-03-20T21:41:39.641Z,28.35
2023-03-20T21:44:16.678Z,29.17
2023-03-20T21:47:22.644Z,27.88
2023-03-20T21:53:05.934Z,34.72
2023-03-20T22:10:11.033Z,30.13
2023-03-20T22:13:14.043Z,28.10
2023-03-20T22:19:00.357Z,30.63
2023-03-20T22:21:31.639Z,36.15
2023-03-20T22:27:18.818Z,28.73
2023-03-20T22:46:43.825Z,30.25
2023-03-20T22:49:04.565Z,34.20
2023-03-20T22:51:38.573Z,25.92
2023-03-20T22:54:13.698Z,31.75
2023-03-20T22:56:43.441Z,29.55
2023-03-20T22:59:13.089Z,29.13
2023-03-20T23:01:42.839Z,33.75
2023-03-20T23:04:12.413Z,32.83
2023-03-20T23:06:42.669Z,36.42
2023-03-20T23:09:15.357Z,29.77
2023-03-20T23:11:45.322Z,33.58
2023-03-20T23:14:21.254Z,32.50
2023-03-20T23:16:52.764Z,29.90
2023-03-20T23:19:22.406Z,30.02
2023-03-20T23:21:52.031Z,33.00
2023-03-20T23:24:22.133Z,30.50
2023-03-20T23:26:52.371Z,31.70
2023-03-20T23:29:22.033Z,30.83
2023-03-20T23:31:51.905Z,35.60
2023-03-20T23:34:21.556Z,33.33
2023-03-20T23:36:51.169Z,31.77
2023-03-20T23:39:20.814Z,33.90
2023-03-20T23:42:06.539Z,31.35
2023-03-20T23:44:53.532Z,36.60
2023-03-20T23:47:27.628Z,33.17
2023-03-20T23:49:59.448Z,37.58
2023-03-20T23:52:29.189Z,34.90
2023-03-20T23:54:58.906Z,33.08
2023-03-20T23:57:28.558Z,34.28
2023-03-20T23:59:58.199Z,38.35
